Terminal Aerodrome Forecast
Issued by NWS Duluth, MN

Home | Current Version | Previous Version | Text Only | Print | Product List | Glossary On
Versions: 1 2 3 4 5 6 7 8 9 10 11 12 13 14 15 16 17 18 19 20 21 22 23 24 25 26 27 28 29 30 31
000
FTUS43 KDLH 301603 AAC
TAFINL
TAF AMD
KINL 301603Z 3016/0112 04009KT 3/4SM -SN BR BKN010 OVC014
      TEMPO 3016/3018 1/2SM SN FG
     FM010000 02009KT 6SM -SN BR OVC010
     FM010900 35008KT 6SM BR OVC009=

USA.gov is the U.S. government's official web portal to all federal, state and local government web resources and services.